Time;durP1;ratioP1;P1;durP2;ratioP2;P2;SDS_P1;SDS_P2;PMS_P1;PMS_P2;Temp;Humidity;BMP_temperature;BMP_pressure;BME280_temperature;BME280_humidity;BME280_pressure;Samples;Min_cycle;Max_cycle;Signal;HPM_P1;HPM_P2
2021/10/26 00:01:45;;;;;;;3.23;2.43;;;;;;;;;;4537263;28;19909;-60
2021/10/26 00:03:56;;;;;;;3.90;2.57;;;;;;;;;;4538541;28;20067;-59
2021/10/26 00:06:07;;;;;;;3.08;2.40;;;;;;;;;;4538457;28;20047;-59
2021/10/26 00:08:17;;;;;;;2.90;2.37;;;;;;;;;;4500215;28;20033;-59
2021/10/26 00:10:28;;;;;;;3.10;2.33;;;;;;;;;;4538795;28;20025;-59
2021/10/26 00:12:38;;;;;;;4.00;2.43;;;;;;;;;;4537482;28;20037;-59
2021/10/26 00:14:49;;;;;;;3.77;2.73;;;;;;;;;;4538000;28;25701;-59
2021/10/26 00:17:00;;;;;;;4.37;2.60;;;;;;;;;;4537100;28;20033;-59
2021/10/26 00:19:11;;;;;;;3.63;2.50;;;;;;;;;;4538181;28;20111;-60
2021/10/26 00:21:21;;;;;;;3.37;2.60;;;;;;;;;;4523047;28;20055;-60
2021/10/26 00:23:32;;;;;;;3.30;2.60;;;;;;;;;;4520712;28;20030;-60
2021/10/26 00:25:43;;;;;;;3.33;2.47;;;;;;;;;;4538075;28;20041;-60
2021/10/26 00:27:55;;;;;;;3.90;2.40;;;;;;;;;;4537340;28;20172;-60
2021/10/26 00:30:08;;;;;;;3.85;2.50;;;;;;;;;;4537682;28;20612;-60
2021/10/26 00:32:18;;;;;;;3.80;2.53;;;;;;;;;;4538218;28;20030;-60
2021/10/26 00:34:29;;;;;;;3.10;2.53;;;;;;;;;;4536220;28;20025;-60
2021/10/26 00:36:39;;;;;;;3.53;2.40;;;;;;;;;;4538465;28;20045;-60
2021/10/26 00:38:50;;;;;;;3.47;2.67;;;;;;;;;;4522691;28;20517;-60
2021/10/26 00:41:01;;;;;;;3.00;2.50;;;;;;;;;;4538056;28;20097;-60
2021/10/26 00:43:12;;;;;;;3.17;2.40;;;;;;;;;;4506706;28;20121;-60
2021/10/26 00:45:23;;;;;;;3.20;2.55;;;;;;;;;;4520041;28;20120;-60
2021/10/26 00:47:33;;;;;;;3.07;2.60;;;;;;;;;;4537119;28;20021;-60
2021/10/26 00:49:44;;;;;;;3.40;2.50;;;;;;;;;;4538221;28;20028;-60
2021/10/26 00:51:55;;;;;;;2.80;2.40;;;;;;;;;;4497626;28;20077;-60
2021/10/26 00:54:06;;;;;;;3.95;2.65;;;;;;;;;;4538789;28;20503;-60
2021/10/26 00:56:20;;;;;;;4.25;2.50;;;;;;;;;;4514192;28;20030;-60
2021/10/26 00:58:32;;;;;;;2.53;2.30;;;;;;;;;;4503832;28;20029;-60
2021/10/26 01:00:43;;;;;;;2.87;2.30;;;;;;;;;;4520002;28;20024;-60
2021/10/26 01:02:54;;;;;;;;;;;;;;;;;;4536601;28;20112;-60
2021/10/26 01:05:14;;;;;;;3.63;2.40;;;;;;;;;;4519799;28;19921;-60
2021/10/26 01:07:25;;;;;;;2.90;2.40;;;;;;;;;;4497752;28;20037;-59
2021/10/26 01:09:35;;;;;;;3.57;2.37;;;;;;;;;;4518874;28;20336;-60
2021/10/26 01:11:46;;;;;;;3.40;2.47;;;;;;;;;;4496112;28;20062;-60
2021/10/26 01:13:58;;;;;;;3.43;2.43;;;;;;;;;;4513213;28;20089;-60
2021/10/26 01:16:09;;;;;;;3.72;2.50;;;;;;;;;;4519724;28;20025;-59
2021/10/26 01:18:20;;;;;;;3.05;2.28;;;;;;;;;;4535938;28;20029;-60
2021/10/26 01:20:30;;;;;;;3.17;2.50;;;;;;;;;;4519193;28;20021;-59
2021/10/26 01:22:41;;;;;;;4.47;2.70;;;;;;;;;;4538167;28;20037;-60
2021/10/26 01:24:55;;;;;;;3.08;2.28;;;;;;;;;;4537249;28;20025;-60
2021/10/26 01:27:06;;;;;;;3.20;2.45;;;;;;;;;;4518601;28;20030;-60
2021/10/26 01:29:17;;;;;;;3.70;2.70;;;;;;;;;;4519050;28;20030;-60
2021/10/26 01:31:27;;;;;;;4.03;2.57;;;;;;;;;;4523237;28;20028;-60
2021/10/26 01:33:57;;;;;;;3.97;2.60;;;;;;;;;;4519565;28;20291;-60
2021/10/26 01:36:22;;;;;;;3.63;2.75;;;;;;;;;;4536128;28;20032;-60
2021/10/26 01:38:32;;;;;;;3.40;2.67;;;;;;;;;;4536082;28;20037;-59
2021/10/26 01:40:43;;;;;;;3.57;2.70;;;;;;;;;;4536833;28;20140;-60
2021/10/26 01:42:54;;;;;;;4.20;2.70;;;;;;;;;;4503376;28;20026;-59
2021/10/26 01:45:05;;;;;;;4.00;2.77;;;;;;;;;;4535664;28;20036;-59
2021/10/26 01:47:16;;;;;;;;;;;;;;;;;;4516193;28;20018;-59
2021/10/26 01:49:26;;;;;;;4.03;2.72;;;;;;;;;;4518786;28;19913;-60
2021/10/26 01:51:37;;;;;;;4.93;3.10;;;;;;;;;;4503088;28;20085;-60
2021/10/26 01:53:47;;;;;;;3.67;2.47;;;;;;;;;;4536161;28;20041;-60
2021/10/26 01:56:01;;;;;;;3.83;2.80;;;;;;;;;;4535408;28;20139;-60
2021/10/26 01:58:22;;;;;;;3.38;2.50;;;;;;;;;;4521048;28;20803;-59
2021/10/26 02:00:51;;;;;;;4.18;2.85;;;;;;;;;;4537707;28;20084;-60
2021/10/26 02:03:02;;;;;;;4.50;3.00;;;;;;;;;;4498522;28;20439;-60
2021/10/26 02:05:13;;;;;;;3.47;2.60;;;;;;;;;;4516814;28;20049;-60
2021/10/26 02:07:24;;;;;;;3.67;2.70;;;;;;;;;;4519917;28;20112;-60
2021/10/26 02:09:34;;;;;;;3.27;2.50;;;;;;;;;;4535787;28;20063;-60
2021/10/26 02:11:45;;;;;;;4.30;2.80;;;;;;;;;;4519358;28;20643;-60
2021/10/26 02:13:55;;;;;;;3.73;2.43;;;;;;;;;;4496404;28;20033;-60
2021/10/26 02:16:06;;;;;;;3.30;2.60;;;;;;;;;;4517598;28;20497;-60
2021/10/26 02:18:16;;;;;;;4.00;2.80;;;;;;;;;;4518752;28;20033;-60
2021/10/26 02:20:28;;;;;;;4.30;2.83;;;;;;;;;;4534493;28;20032;-60
2021/10/26 02:22:39;;;;;;;3.35;2.58;;;;;;;;;;4517980;28;20017;-60
2021/10/26 02:24:50;;;;;;;3.90;2.78;;;;;;;;;;4519462;28;20029;-59
2021/10/26 02:27:01;;;;;;;3.73;2.53;;;;;;;;;;4518558;28;20490;-60
2021/10/26 02:29:12;;;;;;;4.18;3.17;;;;;;;;;;4501041;28;20026;-59
2021/10/26 02:31:24;;;;;;;3.83;2.70;;;;;;;;;;4536044;28;20120;-59
2021/10/26 02:33:35;;;;;;;4.13;2.70;;;;;;;;;;4518931;28;22227;-60
2021/10/26 02:35:46;;;;;;;;;;;;;;;;;;4519253;28;20029;-60
2021/10/26 02:37:57;;;;;;;4.45;2.85;;;;;;;;;;4519606;28;19909;-60
2021/10/26 02:40:08;;;;;;;3.97;2.80;;;;;;;;;;4519506;28;20505;-59
2021/10/26 02:42:19;;;;;;;4.50;2.88;;;;;;;;;;4517494;28;20025;-60
2021/10/26 02:44:35;;;;;;;3.97;2.72;;;;;;;;;;4535487;28;20064;-60
2021/10/26 02:46:46;;;;;;;3.85;2.50;;;;;;;;;;4512456;28;20083;-59
2021/10/26 02:48:57;;;;;;;3.70;2.77;;;;;;;;;;4519288;28;20492;-60
2021/10/26 02:51:09;;;;;;;3.20;2.70;;;;;;;;;;4534204;28;20021;-60
2021/10/26 02:53:19;;;;;;;3.83;2.60;;;;;;;;;;4520500;28;20579;-59
2021/10/26 02:55:29;;;;;;;3.80;2.50;;;;;;;;;;4505394;28;20033;-60
2021/10/26 02:57:40;;;;;;;3.47;2.60;;;;;;;;;;4539172;28;20080;-60
2021/10/26 02:59:51;;;;;;;3.73;2.83;;;;;;;;;;4500154;28;20034;-59
2021/10/26 03:02:01;;;;;;;3.93;2.67;;;;;;;;;;4493953;28;20073;-60
2021/10/26 03:04:12;;;;;;;3.92;2.40;;;;;;;;;;4514177;28;20052;-60
2021/10/26 03:06:23;;;;;;;3.80;2.77;;;;;;;;;;4521222;28;29719;-60
2021/10/26 03:08:34;;;;;;;4.38;2.92;;;;;;;;;;4538186;28;20025;-59
2021/10/26 03:10:46;;;;;;;3.45;2.53;;;;;;;;;;4521802;28;20034;-60
2021/10/26 03:13:00;;;;;;;3.55;2.42;;;;;;;;;;4522190;28;20034;-60
2021/10/26 03:15:11;;;;;;;3.80;2.80;;;;;;;;;;4521215;28;20025;-60
2021/10/26 03:17:22;;;;;;;3.85;2.60;;;;;;;;;;4505525;28;20041;-60
2021/10/26 03:19:49;;;;;;;3.50;2.78;;;;;;;;;;4538678;28;20022;-59
2021/10/26 03:22:00;;;;;;;3.57;2.57;;;;;;;;;;4538925;28;20021;-59
2021/10/26 03:24:11;;;;;;;3.13;2.53;;;;;;;;;;4537975;28;20025;-60
2021/10/26 03:26:21;;;;;;;4.33;2.90;;;;;;;;;;4537652;28;20041;-60
2021/10/26 03:28:32;;;;;;;4.10;2.87;;;;;;;;;;4521753;28;20037;-60
2021/10/26 03:30:43;;;;;;;3.37;2.73;;;;;;;;;;4540260;28;24933;-60
2021/10/26 03:33:03;;;;;;;3.90;2.70;;;;;;;;;;4514847;28;20026;-60
2021/10/26 03:35:22;;;;;;;4.22;2.90;;;;;;;;;;4522496;28;20022;-60
2021/10/26 03:37:35;;;;;;;4.00;2.80;;;;;;;;;;4521320;28;20033;-59
2021/10/26 03:39:53;;;;;;;3.55;2.50;;;;;;;;;;4520521;28;20028;-60
2021/10/26 03:42:04;;;;;;;4.13;2.55;;;;;;;;;;4519374;28;20131;-59
2021/10/26 03:44:14;;;;;;;3.63;2.63;;;;;;;;;;4537617;28;20140;-59
2021/10/26 03:46:25;;;;;;;3.23;2.90;;;;;;;;;;4521304;28;20323;-60
2021/10/26 03:48:37;;;;;;;2.83;2.22;;;;;;;;;;4521867;28;20088;-60
2021/10/26 03:50:48;;;;;;;4.10;2.73;;;;;;;;;;4539083;28;20115;-60
2021/10/26 03:52:58;;;;;;;3.67;2.67;;;;;;;;;;4539278;28;20124;-60
2021/10/26 03:55:10;;;;;;;3.80;2.80;;;;;;;;;;4521397;28;20253;-60
2021/10/26 03:57:23;;;;;;;3.05;2.72;;;;;;;;;;4515436;28;20148;-60
2021/10/26 03:59:34;;;;;;;;;;;;;;;;;;4521572;28;20013;-60
2021/10/26 04:01:49;;;;;;;3.00;2.45;;;;;;;;;;4535970;28;19909;-60
2021/10/26 04:03:59;;;;;;;;;;;;;;;;;;4521087;28;20124;-60
2021/10/26 04:06:14;;;;;;;3.70;2.95;;;;;;;;;;4519913;28;19925;-60
2021/10/26 04:08:30;;;;;;;3.55;2.50;;;;;;;;;;4521058;28;20037;-60
2021/10/26 04:10:50;;;;;;;4.32;2.60;;;;;;;;;;4537932;28;20583;-60
2021/10/26 04:13:02;;;;;;;4.00;2.72;;;;;;;;;;4504553;28;20764;-59
2021/10/26 04:15:13;;;;;;;3.97;2.42;;;;;;;;;;4539127;28;20099;-60
2021/10/26 04:17:26;;;;;;;3.60;2.80;;;;;;;;;;4537481;28;20143;-60
2021/10/26 04:19:37;;;;;;;4.30;2.70;;;;;;;;;;4537662;28;20009;-60
2021/10/26 04:21:48;;;;;;;3.90;2.80;;;;;;;;;;4537977;28;20017;-60
2021/10/26 04:24:00;;;;;;;4.17;3.20;;;;;;;;;;4538184;28;20033;-60
2021/10/26 04:26:11;;;;;;;3.83;2.85;;;;;;;;;;4520689;28;20685;-60
2021/10/26 04:28:22;;;;;;;5.20;3.37;;;;;;;;;;4538019;28;20013;-60
2021/10/26 04:30:37;;;;;;;3.10;2.72;;;;;;;;;;4513886;28;20033;-60
2021/10/26 04:32:48;;;;;;;3.88;3.03;;;;;;;;;;4503653;28;20030;-60
2021/10/26 04:34:58;;;;;;;4.30;3.20;;;;;;;;;;4537829;28;20486;-60
2021/10/26 04:37:09;;;;;;;4.57;3.33;;;;;;;;;;4537284;28;20117;-59
2021/10/26 04:39:20;;;;;;;4.30;3.40;;;;;;;;;;4515863;28;20017;-60
2021/10/26 04:41:34;;;;;;;3.73;2.80;;;;;;;;;;4520888;28;20037;-59
2021/10/26 04:43:44;;;;;;;5.13;3.45;;;;;;;;;;4536492;28;20112;-60
2021/10/26 04:45:58;;;;;;;3.13;2.60;;;;;;;;;;4519895;28;20041;-60
2021/10/26 04:48:16;;;;;;;3.47;2.90;;;;;;;;;;4520930;28;20034;-60
2021/10/26 04:50:31;;;;;;;3.95;2.92;;;;;;;;;;4537425;28;20060;-60
2021/10/26 04:52:42;;;;;;;4.95;3.22;;;;;;;;;;4537449;28;20029;-60
2021/10/26 04:54:52;;;;;;;4.33;3.20;;;;;;;;;;4537581;28;20025;-60
2021/10/26 04:57:03;;;;;;;3.23;2.63;;;;;;;;;;4537854;28;20021;-60
2021/10/26 04:59:32;;;;;;;4.53;3.13;;;;;;;;;;4539067;28;20039;-60
2021/10/26 05:01:42;;;;;;;4.30;3.00;;;;;;;;;;4520072;28;20036;-60
2021/10/26 05:03:53;;;;;;;5.07;3.03;;;;;;;;;;4539087;28;20456;-60
2021/10/26 05:06:03;;;;;;;5.28;3.22;;;;;;;;;;4534252;28;20409;-60
2021/10/26 05:08:14;;;;;;;3.77;2.83;;;;;;;;;;4520567;28;21007;-60
2021/10/26 05:10:25;;;;;;;4.10;3.10;;;;;;;;;;4539276;28;20079;-60
2021/10/26 05:12:36;;;;;;;4.03;3.33;;;;;;;;;;4519998;28;20029;-61
2021/10/26 05:14:46;;;;;;;4.70;3.27;;;;;;;;;;4535578;28;20037;-60
2021/10/26 05:17:27;;;;;;;5.05;3.38;;;;;;;;;;4459382;28;20046;-60
2021/10/26 05:20:02;;;;;;;3.78;3.00;;;;;;;;;;4519072;28;20037;-60
2021/10/26 05:22:31;;;;;;;4.45;3.38;;;;;;;;;;4523200;28;20037;-59
2021/10/26 05:24:50;;;;;;;3.40;2.72;;;;;;;;;;4537528;28;20044;-60
2021/10/26 05:27:17;;;;;;;4.05;2.95;;;;;;;;;;4520426;28;20049;-60
2021/10/26 05:29:27;;;;;;;3.85;2.72;;;;;;;;;;4535554;28;20030;-61
2021/10/26 05:31:39;;;;;;;4.30;3.00;;;;;;;;;;4536638;28;28581;-61
2021/10/26 05:33:49;;;;;;;4.07;2.92;;;;;;;;;;4503347;28;20030;-60
2021/10/26 05:36:00;;;;;;;3.70;2.97;;;;;;;;;;4538454;28;20029;-61
2021/10/26 05:38:11;;;;;;;4.55;3.08;;;;;;;;;;4503509;28;20034;-61
2021/10/26 05:40:21;;;;;;;3.53;2.60;;;;;;;;;;4538206;28;20416;-61
2021/10/26 05:42:32;;;;;;;4.50;3.00;;;;;;;;;;4538687;28;20060;-60
2021/10/26 05:44:43;;;;;;;5.18;2.90;;;;;;;;;;4520750;28;20182;-60
2021/10/26 05:46:53;;;;;;;3.17;2.57;;;;;;;;;;4520094;28;20141;-59
2021/10/26 05:49:04;;;;;;;4.17;3.03;;;;;;;;;;4536080;28;20064;-60
2021/10/26 05:51:14;;;;;;;4.07;2.80;;;;;;;;;;4537669;28;20099;-60
2021/10/26 05:53:25;;;;;;;5.33;3.33;;;;;;;;;;4519794;28;20033;-60
2021/10/26 05:55:37;;;;;;;4.17;2.80;;;;;;;;;;4537432;28;20036;-59
2021/10/26 05:57:48;;;;;;;3.83;2.85;;;;;;;;;;4520168;28;20021;-59
2021/10/26 05:59:59;;;;;;;4.37;3.00;;;;;;;;;;4519858;28;20363;-59
2021/10/26 06:02:09;;;;;;;3.55;2.67;;;;;;;;;;4537601;28;20036;-60
2021/10/26 06:04:21;;;;;;;4.63;2.70;;;;;;;;;;4538366;28;20033;-60
2021/10/26 06:06:33;;;;;;;4.35;2.95;;;;;;;;;;4519290;28;20080;-60
2021/10/26 06:08:44;;;;;;;3.92;2.53;;;;;;;;;;4537871;28;20618;-59
2021/10/26 06:10:59;;;;;;;4.90;2.90;;;;;;;;;;4520358;28;20034;-60
2021/10/26 06:13:12;;;;;;;3.80;2.67;;;;;;;;;;4534657;28;20532;-60
2021/10/26 06:15:23;;;;;;;3.90;2.70;;;;;;;;;;4519238;28;20029;-60
2021/10/26 06:17:34;;;;;;;4.53;2.50;;;;;;;;;;4519562;28;20941;-59
2021/10/26 06:19:45;;;;;;;4.22;2.83;;;;;;;;;;4517571;28;20036;-60
2021/10/26 06:21:55;;;;;;;5.10;2.93;;;;;;;;;;4535017;28;20017;-60
2021/10/26 06:24:06;;;;;;;4.75;3.22;;;;;;;;;;4517795;28;20022;-60
2021/10/26 06:26:16;;;;;;;4.37;2.97;;;;;;;;;;4502363;28;20426;-59
2021/10/26 06:28:29;;;;;;;4.28;2.90;;;;;;;;;;4517585;28;20580;-59
2021/10/26 06:30:40;;;;;;;4.57;3.10;;;;;;;;;;4518428;28;20197;-60
2021/10/26 06:32:54;;;;;;;5.10;2.92;;;;;;;;;;4518776;28;20114;-60
2021/10/26 06:35:25;;;;;;;5.32;3.63;;;;;;;;;;4534210;28;20690;-60
2021/10/26 06:37:38;;;;;;;5.03;3.20;;;;;;;;;;4513353;28;20041;-60
2021/10/26 06:39:54;;;;;;;4.53;3.28;;;;;;;;;;4518932;28;20018;-60
2021/10/26 06:42:05;;;;;;;4.85;3.10;;;;;;;;;;4534335;28;20548;-60
2021/10/26 06:44:33;;;;;;;5.43;3.65;;;;;;;;;;4536657;28;20509;-59
2021/10/26 06:47:03;;;;;;;4.90;3.25;;;;;;;;;;4536717;28;20580;-60
2021/10/26 06:49:32;;;;;;;5.45;3.35;;;;;;;;;;4536497;28;20072;-59
2021/10/26 06:52:18;;;;;;;5.63;4.00;;;;;;;;;;4468601;28;20045;-60
2021/10/26 06:54:47;;;;;;;4.95;3.38;;;;;;;;;;4522160;28;20037;-60
2021/10/26 06:57:19;;;;;;;5.18;3.45;;;;;;;;;;4536454;28;20611;-59
2021/10/26 06:59:48;;;;;;;6.88;4.03;;;;;;;;;;4535103;28;20033;-60
2021/10/26 07:02:19;;;;;;;4.85;3.30;;;;;;;;;;4534801;28;20572;-60
2021/10/26 07:04:48;;;;;;;6.43;3.53;;;;;;;;;;4535296;28;20094;-60
2021/10/26 07:07:20;;;;;;;5.20;3.88;;;;;;;;;;4531818;28;20043;-59
2021/10/26 07:09:38;;;;;;;5.32;3.60;;;;;;;;;;4533403;28;20155;-59
2021/10/26 07:11:57;;;;;;;4.90;3.50;;;;;;;;;;4510156;28;20022;-60
2021/10/26 07:14:08;;;;;;;5.45;3.58;;;;;;;;;;4536100;28;20033;-60
2021/10/26 07:16:19;;;;;;;4.70;3.55;;;;;;;;;;4500249;28;20034;-60
2021/10/26 07:18:32;;;;;;;5.18;3.67;;;;;;;;;;4517265;28;20045;-60
2021/10/26 07:20:42;;;;;;;5.17;4.00;;;;;;;;;;4518401;28;20109;-60
2021/10/26 07:23:11;;;;;;;8.13;5.45;;;;;;;;;;4521013;28;20045;-60
2021/10/26 07:25:40;;;;;;;6.43;4.50;;;;;;;;;;4536229;28;20049;-60
2021/10/26 07:27:58;;;;;;;6.37;4.43;;;;;;;;;;4517387;28;20053;-60
2021/10/26 07:30:11;;;;;;;5.03;3.92;;;;;;;;;;4517556;28;20029;-60
2021/10/26 07:32:21;;;;;;;6.60;4.43;;;;;;;;;;4518010;28;21442;-60
2021/10/26 07:34:33;;;;;;;6.30;4.57;;;;;;;;;;4518271;28;20025;-60
2021/10/26 07:36:46;;;;;;;6.57;4.18;;;;;;;;;;4501378;28;20273;-60
2021/10/26 07:39:02;;;;;;;5.95;4.20;;;;;;;;;;4536660;28;20604;-60
2021/10/26 07:41:15;;;;;;;6.00;4.50;;;;;;;;;;4520642;28;20852;-60
2021/10/26 07:43:55;;;;;;;6.03;4.07;;;;;;;;;;4461144;28;20087;-60
2021/10/26 07:46:38;;;;;;;4.90;3.60;;;;;;;;;;4478355;28;20527;-60
2021/10/26 07:48:49;;;;;;;4.23;3.10;;;;;;;;;;4516318;28;20068;-60
2021/10/26 07:51:02;;;;;;;5.57;3.75;;;;;;;;;;4497236;28;20034;-60
2021/10/26 07:53:12;;;;;;;4.78;3.55;;;;;;;;;;4520163;28;20033;-60
2021/10/26 07:55:33;;;;;;;5.30;3.17;;;;;;;;;;4538708;28;20035;-60
2021/10/26 07:57:49;;;;;;;3.70;2.92;;;;;;;;;;4538733;28;20021;-60
2021/10/26 08:00:00;;;;;;;4.38;2.88;;;;;;;;;;4538246;28;20025;-60
2021/10/26 08:02:13;;;;;;;4.57;3.28;;;;;;;;;;4521167;28;20025;-61
2021/10/26 08:04:44;;;;;;;5.00;3.15;;;;;;;;;;4538948;28;21535;-60
2021/10/26 08:07:02;;;;;;;4.68;2.80;;;;;;;;;;4504241;28;20045;-60
2021/10/26 08:09:18;;;;;;;3.73;2.60;;;;;;;;;;4536764;28;20017;-60
2021/10/26 08:11:30;;;;;;;4.78;3.00;;;;;;;;;;4538618;28;20017;-60
2021/10/26 08:13:41;;;;;;;4.45;3.28;;;;;;;;;;4520759;28;20033;-61
2021/10/26 08:15:53;;;;;;;4.88;2.95;;;;;;;;;;4537439;28;20117;-60
2021/10/26 08:18:05;;;;;;;4.70;3.00;;;;;;;;;;4519677;28;20026;-60
2021/10/26 08:20:15;;;;;;;3.60;2.67;;;;;;;;;;4537749;28;20021;-60
2021/10/26 08:22:27;;;;;;;5.47;2.80;;;;;;;;;;4520559;28;20026;-60
2021/10/26 08:24:38;;;;;;;4.72;2.53;;;;;;;;;;4536105;28;20768;-60
2021/10/26 08:27:00;;;;;;;6.30;2.70;;;;;;;;;;4520409;28;20124;-59
2021/10/26 08:29:17;;;;;;;4.50;2.87;;;;;;;;;;4520997;28;20018;-60
2021/10/26 08:31:35;;;;;;;4.57;2.75;;;;;;;;;;4520367;28;20272;-60
2021/10/26 08:36:11;;;;;;;3.03;2.17;;;;;;;;;;4517341;28;20615;-61
2021/10/26 08:38:22;;;;;;;3.50;2.33;;;;;;;;;;4518312;28;20109;-60
2021/10/26 08:40:47;;;;;;;3.83;2.05;;;;;;;;;;4519860;28;20112;-60
2021/10/26 08:43:02;;;;;;;4.20;2.25;;;;;;;;;;4536595;28;20028;-60
2021/10/26 08:45:14;;;;;;;3.97;1.83;;;;;;;;;;4504285;28;20028;-60
2021/10/26 08:47:25;;;;;;;4.05;2.20;;;;;;;;;;4486591;28;20025;-60
2021/10/26 08:49:59;;;;;;;2.88;1.95;;;;;;;;;;4505267;28;20851;-60
2021/10/26 08:52:21;;;;;;;3.45;1.95;;;;;;;;;;4502119;28;20125;-60
2021/10/26 08:54:41;;;;;;;2.92;1.67;;;;;;;;;;4504687;28;20071;-59
2021/10/26 08:56:51;;;;;;;2.83;1.70;;;;;;;;;;4538390;28;20417;-60
2021/10/26 08:59:27;;;;;;;2.15;1.55;;;;;;;;;;4537311;28;20107;-59
2021/10/26 09:01:38;;;;;;;3.15;1.73;;;;;;;;;;4511853;28;20037;-60
2021/10/26 09:03:50;;;;;;;3.60;1.90;;;;;;;;;;4503412;28;20045;-60
2021/10/26 09:06:03;;;;;;;2.80;1.70;;;;;;;;;;4518754;28;21228;-61
2021/10/26 09:08:13;;;;;;;2.80;1.70;;;;;;;;;;4536549;28;20166;-60
2021/10/26 09:10:29;;;;;;;3.03;1.50;;;;;;;;;;4534588;28;20028;-60
2021/10/26 09:19:15;;;;;;;2.72;1.45;;;;;;;;;;4503809;28;20725;-59
2021/10/26 09:21:37;;;;;;;1.80;1.33;;;;;;;;;;4520966;28;20033;-60
2021/10/26 09:23:48;;;;;;;2.03;1.40;;;;;;;;;;4537130;28;20029;-60
2021/10/26 09:26:00;;;;;;;3.00;1.42;;;;;;;;;;4519636;28;20860;-59
2021/10/26 09:28:16;;;;;;;3.70;1.48;;;;;;;;;;4518828;28;20033;-59
2021/10/26 09:30:27;;;;;;;3.10;1.65;;;;;;;;;;4537911;28;20647;-59
2021/10/26 09:32:41;;;;;;;2.85;1.50;;;;;;;;;;4536918;28;20051;-59
2021/10/26 09:34:57;;;;;;;2.63;1.40;;;;;;;;;;4518976;28;20190;-59
2021/10/26 09:37:07;;;;;;;3.72;1.80;;;;;;;;;;4519253;28;20064;-60
2021/10/26 09:39:20;;;;;;;2.13;1.30;;;;;;;;;;4537635;28;20023;-59
2021/10/26 09:41:32;;;;;;;2.97;1.40;;;;;;;;;;4519162;28;20033;-59
2021/10/26 09:43:42;;;;;;;;;;;;;;;;;;4538578;28;20021;-59
2021/10/26 09:46:04;;;;;;;2.25;1.65;;;;;;;;;;4537026;28;19921;-59
2021/10/26 09:48:20;;;;;;;3.67;1.67;;;;;;;;;;4536439;28;20115;-59
2021/10/26 09:50:35;;;;;;;3.50;1.40;;;;;;;;;;4536043;28;20788;-59
2021/10/26 09:52:50;;;;;;;2.90;1.40;;;;;;;;;;4534007;28;20078;-59
2021/10/26 09:55:28;;;;;;;1.92;1.17;;;;;;;;;;4536150;28;20025;-59
2021/10/26 09:57:51;;;;;;;2.50;1.38;;;;;;;;;;4517920;28;20025;-59
2021/10/26 10:00:04;;;;;;;2.28;1.48;;;;;;;;;;4536140;28;20575;-59
2021/10/26 10:02:23;;;;;;;2.70;1.30;;;;;;;;;;4535723;28;20658;-59
2021/10/26 10:04:34;;;;;;;;;;;;;;;;;;4536471;28;20021;-58
2021/10/26 10:06:50;;;;;;;2.30;1.13;;;;;;;;;;4536435;28;19965;-59
2021/10/26 10:09:18;;;;;;;2.70;1.40;;;;;;;;;;4535993;28;20032;-59
2021/10/26 10:11:28;;;;;;;3.72;1.20;;;;;;;;;;4535501;28;20036;-59
2021/10/26 10:13:41;;;;;;;2.67;1.50;;;;;;;;;;4535381;28;20036;-59
2021/10/26 10:15:51;;;;;;;2.28;1.20;;;;;;;;;;4534992;28;20571;-59
2021/10/26 10:18:03;;;;;;;2.60;1.30;;;;;;;;;;4536844;28;20021;-59
2021/10/26 10:20:14;;;;;;;3.35;1.25;;;;;;;;;;4517650;28;20025;-59
2021/10/26 10:22:27;;;;;;;2.07;0.97;;;;;;;;;;4535008;28;20040;-59
2021/10/26 10:24:40;;;;;;;2.10;1.30;;;;;;;;;;4535240;28;20021;-59
2021/10/26 10:26:51;;;;;;;1.88;1.20;;;;;;;;;;4536251;28;20052;-59
2021/10/26 10:29:02;;;;;;;2.35;1.00;;;;;;;;;;4535582;28;20033;-59
2021/10/26 10:31:15;;;;;;;1.17;1.00;;;;;;;;;;4534289;28;20026;-59
2021/10/26 10:33:25;;;;;;;2.05;1.10;;;;;;;;;;4534700;28;20232;-59
2021/10/26 10:35:37;;;;;;;2.80;1.00;;;;;;;;;;4534639;28;20029;-59
2021/10/26 10:37:49;;;;;;;1.95;1.20;;;;;;;;;;4534561;28;20113;-59
2021/10/26 10:40:03;;;;;;;1.98;0.95;;;;;;;;;;4516604;28;20062;-59
2021/10/26 10:42:22;;;;;;;1.95;1.00;;;;;;;;;;4502324;28;20181;-59
2021/10/26 10:44:34;;;;;;;1.80;1.15;;;;;;;;;;4534392;28;20090;-59
2021/10/26 10:47:04;;;;;;;1.77;1.10;;;;;;;;;;4535651;28;20055;-59
2021/10/26 10:49:24;;;;;;;2.10;1.02;;;;;;;;;;4535436;28;20812;-59
2021/10/26 10:51:54;;;;;;;1.42;1.00;;;;;;;;;;4533386;28;20052;-59
2021/10/26 10:54:06;;;;;;;2.58;1.20;;;;;;;;;;4498345;28;20030;-59
2021/10/26 10:56:20;;;;;;;2.65;1.10;;;;;;;;;;4510074;28;20041;-59
2021/10/26 10:58:39;;;;;;;1.33;1.10;;;;;;;;;;4517722;28;20610;-59
2021/10/26 11:00:50;;;;;;;2.90;1.15;;;;;;;;;;4534638;28;20025;-59
2021/10/26 11:03:01;;;;;;;2.45;1.30;;;;;;;;;;4502381;28;20205;-59
2021/10/26 11:05:42;;;;;;;2.37;1.10;;;;;;;;;;4517815;28;25585;-59
2021/10/26 11:07:54;;;;;;;1.80;1.10;;;;;;;;;;4535705;28;20116;-59
2021/10/26 11:10:04;;;;;;;2.60;0.98;;;;;;;;;;4517923;28;20572;-59
2021/10/26 11:12:30;;;;;;;2.10;0.90;;;;;;;;;;4535600;28;20033;-70
2021/10/26 11:14:56;;;;;;;2.60;1.17;;;;;;;;;;4538363;28;20033;-60
2021/10/26 11:19:45;;;;;;;1.83;1.05;;;;;;;;;;4538937;28;20025;-60
2021/10/26 11:21:56;;;;;;;3.35;1.10;;;;;;;;;;4539162;28;20022;-60
2021/10/26 11:24:08;;;;;;;1.23;0.90;;;;;;;;;;4538761;28;29285;-60
2021/10/26 11:26:30;;;;;;;2.13;1.05;;;;;;;;;;4538567;28;20210;-60
2021/10/26 11:28:49;;;;;;;1.58;0.90;;;;;;;;;;4538799;28;20776;-61
2021/10/26 11:31:03;;;;;;;2.42;0.90;;;;;;;;;;4539034;28;20809;-61
2021/10/26 11:33:14;;;;;;;1.95;1.13;;;;;;;;;;4514547;28;20022;-61
2021/10/26 11:35:52;;;;;;;2.03;0.88;;;;;;;;;;4520512;28;20054;-61
2021/10/26 11:38:11;;;;;;;2.60;0.95;;;;;;;;;;4538848;28;20032;-60
2021/10/26 11:40:21;;;;;;;1.70;0.90;;;;;;;;;;4520813;28;20060;-61
2021/10/26 11:42:32;;;;;;;1.70;0.90;;;;;;;;;;4538171;28;20023;-60
2021/10/26 11:44:42;;;;;;;1.05;0.70;;;;;;;;;;4516240;28;20025;-62
2021/10/26 11:46:53;;;;;;;1.83;0.90;;;;;;;;;;4538362;28;20814;-61
2021/10/26 11:49:21;;;;;;;2.50;1.10;;;;;;;;;;4538526;28;20037;-61
2021/10/26 11:51:39;;;;;;;2.50;1.05;;;;;;;;;;4535709;28;20041;-60
2021/10/26 11:53:53;;;;;;;2.00;0.90;;;;;;;;;;4522413;28;20030;-61
2021/10/26 11:56:28;;;;;;;2.45;1.00;;;;;;;;;;4537290;28;20249;-61
2021/10/26 11:58:39;;;;;;;1.35;0.80;;;;;;;;;;4536572;28;20591;-60
2021/10/26 12:00:58;;;;;;;1.85;1.00;;;;;;;;;;4535950;28;20054;-60
2021/10/26 12:03:08;;;;;;;2.35;1.05;;;;;;;;;;4502679;28;20026;-61
2021/10/26 12:05:20;;;;;;;3.67;0.97;;;;;;;;;;4537513;28;20034;-60
2021/10/26 12:07:30;;;;;;;1.33;1.00;;;;;;;;;;4538543;28;20063;-61
2021/10/26 12:09:48;;;;;;;2.15;0.80;;;;;;;;;;4519138;28;20029;-60
2021/10/26 12:12:01;;;;;;;1.83;0.85;;;;;;;;;;4517277;28;20029;-60
2021/10/26 12:14:14;;;;;;;1.48;0.90;;;;;;;;;;4519145;28;20064;-61
2021/10/26 12:16:25;;;;;;;1.92;0.98;;;;;;;;;;4536481;28;20040;-60
2021/10/26 12:18:35;;;;;;;2.70;1.00;;;;;;;;;;4538395;28;20029;-61
2021/10/26 12:20:45;;;;;;;1.77;0.80;;;;;;;;;;4538198;28;20440;-61
2021/10/26 12:22:58;;;;;;;1.90;0.83;;;;;;;;;;4518362;28;20029;-60
2021/10/26 12:25:18;;;;;;;1.80;0.80;;;;;;;;;;4494622;28;20556;-61
2021/10/26 12:27:34;;;;;;;1.50;1.00;;;;;;;;;;4502772;28;20049;-60
2021/10/26 12:29:44;;;;;;;0.85;0.70;;;;;;;;;;4536741;28;20052;-61
2021/10/26 12:31:55;;;;;;;2.27;1.00;;;;;;;;;;4520754;28;20513;-60
2021/10/26 12:34:06;;;;;;;1.98;0.70;;;;;;;;;;4520322;28;20655;-61
2021/10/26 12:36:19;;;;;;;2.33;1.50;;;;;;;;;;4520374;28;20425;-61
2021/10/26 12:38:38;;;;;;;0.63;0.63;;;;;;;;;;4520581;28;20055;-61
2021/10/26 12:40:56;;;;;;;1.42;0.80;;;;;;;;;;4519497;28;20069;-60
2021/10/26 12:43:06;;;;;;;2.30;0.80;;;;;;;;;;4516602;28;21018;-60
2021/10/26 12:45:18;;;;;;;2.80;0.90;;;;;;;;;;4520314;28;20021;-61
2021/10/26 12:47:31;;;;;;;2.50;0.85;;;;;;;;;;4535282;28;20203;-61
2021/10/26 12:49:41;;;;;;;1.40;1.00;;;;;;;;;;4538156;28;20036;-61
2021/10/26 12:51:52;;;;;;;2.00;0.80;;;;;;;;;;4519867;28;20089;-61
2021/10/26 12:54:18;;;;;;;2.37;0.97;;;;;;;;;;4520952;28;20021;-60
2021/10/26 12:56:30;;;;;;;2.67;1.00;;;;;;;;;;4537209;28;20029;-61
2021/10/26 12:58:46;;;;;;;1.77;0.80;;;;;;;;;;4520164;28;20021;-61
2021/10/26 13:01:00;;;;;;;2.25;0.80;;;;;;;;;;4534939;28;20032;-61
2021/10/26 13:03:12;;;;;;;1.58;0.90;;;;;;;;;;4501670;28;20026;-61
2021/10/26 13:05:22;;;;;;;2.90;0.80;;;;;;;;;;4534867;28;20025;-61
2021/10/26 13:07:33;;;;;;;1.83;1.10;;;;;;;;;;4538330;28;20029;-60
2021/10/26 13:09:47;;;;;;;2.37;0.90;;;;;;;;;;4520112;28;20022;-61
2021/10/26 13:12:10;;;;;;;1.85;0.90;;;;;;;;;;4538372;28;20503;-60
2021/10/26 13:14:34;;;;;;;1.27;0.70;;;;;;;;;;4516030;28;20026;-61
2021/10/26 13:16:47;;;;;;;1.83;1.00;;;;;;;;;;4538361;28;20022;-60
2021/10/26 13:19:29;;;;;;;1.45;1.00;;;;;;;;;;4537262;28;20059;-61
2021/10/26 13:21:41;;;;;;;1.95;1.02;;;;;;;;;;4538326;28;20096;-61
2021/10/26 13:23:51;;;;;;;1.92;1.02;;;;;;;;;;4519930;28;20025;-60
2021/10/26 13:26:04;;;;;;;2.63;1.13;;;;;;;;;;4536830;28;20041;-60
2021/10/26 13:28:16;;;;;;;1.60;0.90;;;;;;;;;;4537642;28;20033;-59
2021/10/26 13:30:27;;;;;;;2.60;1.10;;;;;;;;;;4537395;28;20038;-60
2021/10/26 13:32:37;;;;;;;3.50;1.00;;;;;;;;;;4537836;28;20025;-60
2021/10/26 13:34:52;;;;;;;3.53;1.23;;;;;;;;;;4518061;28;20965;-60
2021/10/26 13:37:02;;;;;;;1.77;1.02;;;;;;;;;;4536309;28;21318;-60
2021/10/26 13:39:13;;;;;;;2.40;0.90;;;;;;;;;;4537413;28;20128;-60
2021/10/26 13:41:23;;;;;;;2.07;1.10;;;;;;;;;;4536786;28;20034;-60